sensor_id;sensor_type;location;lat;lon;timestamp;pressure;altitude;pressure_sealevel;temperature;humidity
26112;BME280;13829;48.990;8.346;2023-11-19T00:00:51;100372.84;;;10.92;100.00
26112;BME280;13829;48.990;8.346;2023-11-19T00:03:19;100361.44;;;10.95;100.00
26112;BME280;13829;48.990;8.346;2023-11-19T00:05:46;100368.41;;;10.80;100.00
26112;BME280;13829;48.990;8.346;2023-11-19T00:08:13;100351.78;;;10.97;100.00
26112;BME280;13829;48.990;8.346;2023-11-19T00:10:40;100350.88;;;10.91;100.00
26112;BME280;13829;48.990;8.346;2023-11-19T00:13:07;100365.81;;;10.92;100.00
26112;BME280;13829;48.990;8.346;2023-11-19T00:15:35;100377.22;;;10.96;100.00
26112;BME280;13829;48.990;8.346;2023-11-19T00:18:03;100360.56;;;11.02;100.00
26112;BME280;13829;48.990;8.346;2023-11-19T00:20:31;100355.34;;;11.17;100.00
26112;BME280;13829;48.990;8.346;2023-11-19T00:22:58;100350.94;;;11.10;100.00
26112;BME280;13829;48.990;8.346;2023-11-19T00:25:27;100333.38;;;11.12;100.00
26112;BME280;13829;48.990;8.346;2023-11-19T00:27:54;100331.66;;;11.11;100.00
26112;BME280;13829;48.990;8.346;2023-11-19T00:30:22;100329.00;;;11.16;100.00
26112;BME280;13829;48.990;8.346;2023-11-19T00:32:49;100328.13;;;11.15;100.00
26112;BME280;13829;48.990;8.346;2023-11-19T00:35:15;100314.97;;;11.09;100.00
26112;BME280;13829;48.990;8.346;2023-11-19T00:37:43;100321.13;;;11.17;100.00
26112;BME280;13829;48.990;8.346;2023-11-19T00:40:11;100322.84;;;11.12;100.00
26112;BME280;13829;48.990;8.346;2023-11-19T00:42:38;100319.38;;;11.25;100.00
26112;BME280;13829;48.990;8.346;2023-11-19T00:45:06;100310.63;;;11.33;100.00
26112;BME280;13829;48.990;8.346;2023-11-19T00:47:35;100317.59;;;11.24;100.00
26112;BME280;13829;48.990;8.346;2023-11-19T00:50:02;100308.84;;;11.19;100.00
26112;BME280;13829;48.990;8.346;2023-11-19T00:52:29;100307.06;;;11.18;100.00
26112;BME280;13829;48.990;8.346;2023-11-19T00:54:58;100314.97;;;11.32;100.00
26112;BME280;13829;48.990;8.346;2023-11-19T00:57:24;100315.00;;;11.34;100.00
26112;BME280;13829;48.990;8.346;2023-11-19T00:59:52;100312.38;;;11.28;100.00
26112;BME280;13829;48.990;8.346;2023-11-19T01:02:19;100314.09;;;11.35;100.00
26112;BME280;13829;48.990;8.346;2023-11-19T01:04:46;100302.69;;;11.37;100.00
26112;BME280;13829;48.990;8.346;2023-11-19T01:07:13;100305.34;;;11.42;100.00
26112;BME280;13829;48.990;8.346;2023-11-19T01:09:42;100298.31;;;11.44;100.00
26112;BME280;13829;48.990;8.346;2023-11-19T01:12:10;100300.97;;;11.44;100.00
26112;BME280;13829;48.990;8.346;2023-11-19T01:14:38;100301.84;;;11.49;100.00
26112;BME280;13829;48.990;8.346;2023-11-19T01:17:05;100303.56;;;11.47;100.00
26112;BME280;13829;48.990;8.346;2023-11-19T01:19:32;100309.72;;;11.51;100.00
26112;BME280;13829;48.990;8.346;2023-11-19T01:21:59;100305.34;;;11.54;100.00
26112;BME280;13829;48.990;8.346;2023-11-19T01:24:26;100313.25;;;11.61;100.00
26112;BME280;13829;48.990;8.346;2023-11-19T01:26:54;100315.84;;;11.51;100.00
26112;BME280;13829;48.990;8.346;2023-11-19T01:29:24;100320.25;;;11.58;100.00
26112;BME280;13829;48.990;8.346;2023-11-19T01:31:52;100322.00;;;11.55;100.00
26112;BME280;13829;48.990;8.346;2023-11-19T01:34:19;100308.84;;;11.50;100.00
26112;BME280;13829;48.990;8.346;2023-11-19T01:36:47;100311.47;;;11.61;100.00
26112;BME280;13829;48.990;8.346;2023-11-19T01:39:14;100304.47;;;11.51;100.00
26112;BME280;13829;48.990;8.346;2023-11-19T01:41:43;100314.13;;;11.59;100.00
26112;BME280;13829;48.990;8.346;2023-11-19T01:44:09;100321.13;;;11.51;100.00
26112;BME280;13829;48.990;8.346;2023-11-19T01:46:42;100317.63;;;11.52;100.00
26112;BME280;13829;48.990;8.346;2023-11-19T01:49:10;100319.38;;;11.53;100.00
26112;BME280;13829;48.990;8.346;2023-11-19T01:51:38;100307.97;;;11.62;100.00
26112;BME280;13829;48.990;8.346;2023-11-19T01:54:07;100307.09;;;11.65;100.00
26112;BME280;13829;48.990;8.346;2023-11-19T01:56:35;100307.97;;;11.67;100.00
26112;BME280;13829;48.990;8.346;2023-11-19T01:59:03;100310.59;;;11.68;100.00
26112;BME280;13829;48.990;8.346;2023-11-19T02:01:30;100303.56;;;11.66;100.00
26112;BME280;13829;48.990;8.346;2023-11-19T02:03:59;100299.16;;;11.72;100.00
26112;BME280;13829;48.990;8.346;2023-11-19T02:06:27;100295.66;;;11.72;100.00
26112;BME280;13829;48.990;8.346;2023-11-19T02:08:55;100290.41;;;11.67;100.00
26112;BME280;13829;48.990;8.346;2023-11-19T02:11:22;100296.56;;;11.63;100.00
26112;BME280;13829;48.990;8.346;2023-11-19T02:13:49;100296.53;;;11.74;100.00
26112;BME280;13829;48.990;8.346;2023-11-19T02:16:16;100301.81;;;11.60;100.00
26112;BME280;13829;48.990;8.346;2023-11-19T02:18:43;100298.31;;;11.59;100.00
26112;BME280;13829;48.990;8.346;2023-11-19T02:21:11;100296.56;;;11.62;100.00
26112;BME280;13829;48.990;8.346;2023-11-19T02:23:41;100296.53;;;11.74;100.00
26112;BME280;13829;48.990;8.346;2023-11-19T02:26:16;100305.28;;;11.79;100.00
26112;BME280;13829;48.990;8.346;2023-11-19T02:28:46;100295.66;;;11.78;100.00
26112;BME280;13829;48.990;8.346;2023-11-19T02:31:13;100295.63;;;11.77;100.00
26112;BME280;13829;48.990;8.346;2023-11-19T02:33:40;100278.97;;;11.82;100.00
26112;BME280;13829;48.990;8.346;2023-11-19T02:36:09;100293.03;;;11.72;100.00
26112;BME280;13829;48.990;8.346;2023-11-19T02:38:36;100291.28;;;11.71;100.00
26112;BME280;13829;48.990;8.346;2023-11-19T02:41:04;100280.72;;;11.72;100.00
26112;BME280;13829;48.990;8.346;2023-11-19T02:43:32;100277.19;;;11.75;100.00
26112;BME280;13829;48.990;8.346;2023-11-19T02:46:03;100284.25;;;11.73;100.00
26112;BME280;13829;48.990;8.346;2023-11-19T02:48:32;100294.75;;;11.79;100.00
26112;BME280;13829;48.990;8.346;2023-11-19T02:51:01;100291.25;;;11.79;100.00
26112;BME280;13829;48.990;8.346;2023-11-19T02:53:29;100282.44;;;11.84;100.00
26112;BME280;13829;48.990;8.346;2023-11-19T02:55:56;100268.41;;;11.82;100.00
26112;BME280;13829;48.990;8.346;2023-11-19T02:58:32;100259.63;;;11.86;100.00
26112;BME280;13829;48.990;8.346;2023-11-19T03:01:01;100254.38;;;11.83;100.00
26112;BME280;13829;48.990;8.346;2023-11-19T03:03:38;100248.22;;;11.86;100.00
26112;BME280;13829;48.990;8.346;2023-11-19T03:06:06;100263.13;;;11.88;100.00
26112;BME280;13829;48.990;8.346;2023-11-19T03:08:36;100271.03;;;11.88;100.00
26112;BME280;13829;48.990;8.346;2023-11-19T03:11:04;100271.00;;;11.93;100.00
26112;BME280;13829;48.990;8.346;2023-11-19T03:13:31;100268.41;;;11.90;100.00
26112;BME280;13829;48.990;8.346;2023-11-19T03:15:58;100275.44;;;11.89;100.00
26112;BME280;13829;48.990;8.346;2023-11-19T03:18:26;100269.28;;;11.92;100.00
26112;BME280;13829;48.990;8.346;2023-11-19T03:20:54;100271.88;;;11.90;100.00
26112;BME280;13829;48.990;8.346;2023-11-19T03:23:21;100259.63;;;11.83;100.00
26112;BME280;13829;48.990;8.346;2023-11-19T03:25:48;100254.34;;;11.86;100.00
26112;BME280;13829;48.990;8.346;2023-11-19T03:28:15;100261.38;;;11.81;100.00
26112;BME280;13829;48.990;8.346;2023-11-19T03:30:42;100264.00;;;11.84;100.00
26112;BME280;13829;48.990;8.346;2023-11-19T03:33:09;100256.09;;;11.87;100.00
26112;BME280;13829;48.990;8.346;2023-11-19T03:35:37;100249.94;;;11.95;100.00
26112;BME280;13829;48.990;8.346;2023-11-19T03:38:06;100250.84;;;11.87;100.00
26112;BME280;13829;48.990;8.346;2023-11-19T03:40:33;100256.09;;;11.94;100.00
26112;BME280;13829;48.990;8.346;2023-11-19T03:43:01;100259.59;;;11.96;100.00
26112;BME280;13829;48.990;8.346;2023-11-19T03:45:29;100254.34;;;11.96;100.00
26112;BME280;13829;48.990;8.346;2023-11-19T03:47:56;100261.34;;;11.94;100.00
26112;BME280;13829;48.990;8.346;2023-11-19T03:50:23;100267.50;;;11.94;100.00
26112;BME280;13829;48.990;8.346;2023-11-19T03:52:51;100268.38;;;11.93;100.00
26112;BME280;13829;48.990;8.346;2023-11-19T03:55:19;100266.63;;;11.97;100.00
26112;BME280;13829;48.990;8.346;2023-11-19T03:57:46;100268.41;;;12.01;100.00
26112;BME280;13829;48.990;8.346;2023-11-19T04:00:14;100272.75;;;12.08;100.00
26112;BME280;13829;48.990;8.346;2023-11-19T04:02:42;100273.63;;;12.10;100.00
26112;BME280;13829;48.990;8.346;2023-11-19T04:05:09;100268.38;;;12.10;100.00
26112;BME280;13829;48.990;8.346;2023-11-19T04:07:36;100266.59;;;12.12;100.00
26112;BME280;13829;48.990;8.346;2023-11-19T04:10:06;100267.50;;;12.05;100.00
26112;BME280;13829;48.990;8.346;2023-11-19T04:12:33;100269.22;;;12.11;100.00
26112;BME280;13829;48.990;8.346;2023-11-19T04:15:00;100261.34;;;12.09;100.00
26112;BME280;13829;48.990;8.346;2023-11-19T04:17:27;100270.09;;;12.17;100.00
26112;BME280;13829;48.990;8.346;2023-11-19T04:19:54;100264.84;;;12.11;100.00
26112;BME280;13829;48.990;8.346;2023-11-19T04:22:21;100263.97;;;12.07;100.00
26112;BME280;13829;48.990;8.346;2023-11-19T04:24:48;100264.84;;;12.17;100.00
26112;BME280;13829;48.990;8.346;2023-11-19T04:27:16;100256.03;;;12.18;100.00
26112;BME280;13829;48.990;8.346;2023-11-19T04:29:43;100256.03;;;12.21;100.00
26112;BME280;13829;48.990;8.346;2023-11-19T04:32:11;100250.72;;;12.24;100.00
26112;BME280;13829;48.990;8.346;2023-11-19T04:34:38;100254.25;;;12.27;100.00
26112;BME280;13829;48.990;8.346;2023-11-19T04:37:05;100264.78;;;12.27;100.00
26112;BME280;13829;48.990;8.346;2023-11-19T04:39:32;100258.66;;;12.23;100.00
26112;BME280;13829;48.990;8.346;2023-11-19T04:41:59;100270.09;;;12.17;100.00
26112;BME280;13829;48.990;8.346;2023-11-19T04:44:27;100254.25;;;12.23;100.00
26112;BME280;13829;48.990;8.346;2023-11-19T04:46:55;100262.16;;;12.23;100.00
26112;BME280;13829;48.990;8.346;2023-11-19T04:49:22;100258.63;;;12.24;100.00
26112;BME280;13829;48.990;8.346;2023-11-19T04:51:49;100255.09;;;12.32;100.00
26112;BME280;13829;48.990;8.346;2023-11-19T04:54:16;100246.28;;;12.34;100.00
26112;BME280;13829;48.990;8.346;2023-11-19T04:56:45;100238.41;;;12.30;100.00
26112;BME280;13829;48.990;8.346;2023-11-19T04:59:13;100242.78;;;12.31;100.00
26112;BME280;13829;48.990;8.346;2023-11-19T05:01:41;100248.00;;;12.45;100.00
26112;BME280;13829;48.990;8.346;2023-11-19T05:04:08;100247.97;;;12.46;100.00
26112;BME280;13829;48.990;8.346;2023-11-19T05:06:35;100251.53;;;12.37;100.00
26112;BME280;13829;48.990;8.346;2023-11-19T05:09:03;100236.59;;;12.44;100.00
26112;BME280;13829;48.990;8.346;2023-11-19T05:11:33;100233.06;;;12.45;100.00
26112;BME280;13829;48.990;8.346;2023-11-19T05:14:00;100224.25;;;12.49;100.00
26112;BME280;13829;48.990;8.346;2023-11-19T05:16:29;100238.25;;;12.61;100.00
26112;BME280;13829;48.990;8.346;2023-11-19T05:18:58;100247.06;;;12.53;100.00
26112;BME280;13829;48.990;8.346;2023-11-19T05:21:25;100247.94;;;12.57;100.00
26112;BME280;13829;48.990;8.346;2023-11-19T05:23:52;100243.50;;;12.64;100.00
26112;BME280;13829;48.990;8.346;2023-11-19T05:26:21;100245.22;;;12.68;100.00
26112;BME280;13829;48.990;8.346;2023-11-19T05:28:49;100244.38;;;12.66;100.00
26112;BME280;13829;48.990;8.346;2023-11-19T05:31:17;100238.19;;;12.70;100.00
26112;BME280;13829;48.990;8.346;2023-11-19T05:33:44;100249.66;;;12.66;100.00
26112;BME280;13829;48.990;8.346;2023-11-19T05:36:13;100253.13;;;12.72;100.00
26112;BME280;13829;48.990;8.346;2023-11-19T05:38:40;100240.03;;;12.54;100.00
26112;BME280;13829;48.990;8.346;2023-11-19T05:41:07;100231.19;;;12.66;100.00
26112;BME280;13829;48.990;8.346;2023-11-19T05:43:34;100225.84;;;12.70;100.00
26112;BME280;13829;48.990;8.346;2023-11-19T05:46:01;100232.03;;;12.68;100.00
26112;BME280;13829;48.990;8.346;2023-11-19T05:48:29;100223.19;;;12.78;100.00
26112;BME280;13829;48.990;8.346;2023-11-19T05:50:56;100231.09;;;12.78;100.00
26112;BME280;13829;48.990;8.346;2023-11-19T05:53:24;100232.88;;;12.75;100.00
26112;BME280;13829;48.990;8.346;2023-11-19T05:55:51;100226.63;;;12.89;100.00
26112;BME280;13829;48.990;8.346;2023-11-19T05:58:24;100225.75;;;12.87;100.00
26112;BME280;13829;48.990;8.346;2023-11-19T06:00:54;100223.97;;;12.88;100.00
26112;BME280;13829;48.990;8.346;2023-11-19T06:03:21;100226.63;;;12.86;100.00
26112;BME280;13829;48.990;8.346;2023-11-19T06:05:48;100231.00;;;12.89;100.00
26112;BME280;13829;48.990;8.346;2023-11-19T06:08:15;100227.44;;;12.93;100.00
26112;BME280;13829;48.990;8.346;2023-11-19T06:10:44;100218.66;;;12.93;100.00
26112;BME280;13829;48.990;8.346;2023-11-19T06:13:12;100221.22;;;13.03;100.00
26112;BME280;13829;48.990;8.346;2023-11-19T06:15:41;100217.75;;;12.97;100.00
26112;BME280;13829;48.990;8.346;2023-11-19T06:18:08;100220.34;;;13.06;100.00
26112;BME280;13829;48.990;8.346;2023-11-19T06:20:37;100225.66;;;12.97;100.00
26112;BME280;13829;48.990;8.346;2023-11-19T06:23:04;100211.56;;;12.99;100.00
26112;BME280;13829;48.990;8.346;2023-11-19T06:25:31;100213.34;;;12.96;100.00
26112;BME280;13829;48.990;8.346;2023-11-19T06:27:59;100223.91;;;12.99;100.00
26112;BME280;13829;48.990;8.346;2023-11-19T06:30:26;100226.50;;;13.02;100.00
26112;BME280;13829;48.990;8.346;2023-11-19T06:32:55;100232.78;;;12.88;100.00
26112;BME280;13829;48.990;8.346;2023-11-19T06:35:22;100232.75;;;12.92;100.00
26112;BME280;13829;48.990;8.346;2023-11-19T06:37:49;100232.75;;;12.92;100.00
26112;BME280;13829;48.990;8.346;2023-11-19T06:40:16;100227.47;;;12.92;100.00
26112;BME280;13829;48.990;8.346;2023-11-19T06:42:43;100231.84;;;12.97;100.00
26112;BME280;13829;48.990;8.346;2023-11-19T06:45:12;100221.38;;;12.83;100.00
26112;BME280;13829;48.990;8.346;2023-11-19T06:47:39;100222.22;;;12.88;100.00
26112;BME280;13829;48.990;8.346;2023-11-19T06:50:07;100223.94;;;12.93;100.00
26112;BME280;13829;48.990;8.346;2023-11-19T06:52:35;100216.84;;;13.01;100.00
26112;BME280;13829;48.990;8.346;2023-11-19T06:55:04;100224.88;;;12.88;100.00
26112;BME280;13829;48.990;8.346;2023-11-19T06:57:31;100221.31;;;12.88;100.00
26112;BME280;13829;48.990;8.346;2023-11-19T06:59:58;100220.44;;;12.94;100.00
26112;BME280;13829;48.990;8.346;2023-11-19T07:02:26;100223.91;;;12.99;100.00
26112;BME280;13829;48.990;8.346;2023-11-19T07:04:53;100226.47;;;13.07;100.00
26112;BME280;13829;48.990;8.346;2023-11-19T07:07:20;100235.28;;;13.09;100.00
26112;BME280;13829;48.990;8.346;2023-11-19T07:09:47;100244.00;;;13.12;100.00
26112;BME280;13829;48.990;8.346;2023-11-19T07:12:15;100242.31;;;13.08;100.00
26112;BME280;13829;48.990;8.346;2023-11-19T07:14:42;100251.09;;;13.07;100.00
26112;BME280;13829;48.990;8.346;2023-11-19T07:17:09;100247.50;;;13.20;100.00
26112;BME280;13829;48.990;8.346;2023-11-19T07:19:38;100253.66;;;13.19;100.00
26112;BME280;13829;48.990;8.346;2023-11-19T07:22:04;100251.91;;;13.18;100.00
26112;BME280;13829;48.990;8.346;2023-11-19T07:24:31;100264.22;;;13.23;100.00
26112;BME280;13829;48.990;8.346;2023-11-19T07:26:58;100265.94;;;13.22;100.00
26112;BME280;13829;48.990;8.346;2023-11-19T07:29:25;100259.72;;;13.34;100.00
26112;BME280;13829;48.990;8.346;2023-11-19T07:31:53;100263.16;;;13.44;100.00
26112;BME280;13829;48.990;8.346;2023-11-19T07:34:21;100267.66;;;13.29;100.00
26112;BME280;13829;48.990;8.346;2023-11-19T07:36:50;100273.78;;;13.34;100.00
26112;BME280;13829;48.990;8.346;2023-11-19T07:39:17;100282.59;;;13.36;100.00
26112;BME280;13829;48.990;8.346;2023-11-19T07:41:46;100277.31;;;13.33;100.00
26112;BME280;13829;48.990;8.346;2023-11-19T07:44:13;100272.00;;;13.36;100.00
26112;BME280;13829;48.990;8.346;2023-11-19T07:46:40;100283.47;;;13.37;100.00
26112;BME280;13829;48.990;8.346;2023-11-19T07:49:08;100282.56;;;13.41;100.00
26112;BME280;13829;48.990;8.346;2023-11-19T07:51:35;100293.13;;;13.41;100.00
26112;BME280;13829;48.990;8.346;2023-11-19T07:54:04;100283.38;;;13.46;100.00
26112;BME280;13829;48.990;8.346;2023-11-19T07:56:33;100288.66;;;13.49;100.00
26112;BME280;13829;48.990;8.346;2023-11-19T07:59:01;100291.25;;;13.52;100.00
26112;BME280;13829;48.990;8.346;2023-11-19T08:01:28;100301.88;;;13.48;100.00
26112;BME280;13829;48.990;8.346;2023-11-19T08:03:55;100301.00;;;13.47;100.00
26112;BME280;13829;48.990;8.346;2023-11-19T08:06:22;100311.56;;;13.47;100.00
26112;BME280;13829;48.990;8.346;2023-11-19T08:08:49;100299.22;;;13.46;100.00
26112;BME280;13829;48.990;8.346;2023-11-19T08:11:19;100303.63;;;13.47;100.00
26112;BME280;13829;48.990;8.346;2023-11-19T08:13:46;100310.66;;;13.53;100.00
26112;BME280;13829;48.990;8.346;2023-11-19T08:16:13;100310.66;;;13.53;100.00
26112;BME280;13829;48.990;8.346;2023-11-19T08:18:43;100310.63;;;13.51;100.00
26112;BME280;13829;48.990;8.346;2023-11-19T08:21:10;100305.28;;;13.62;100.00
26112;BME280;13829;48.990;8.346;2023-11-19T08:23:38;100312.31;;;13.63;100.00
26112;BME280;13829;48.990;8.346;2023-11-19T08:26:05;100320.22;;;13.65;100.00
26112;BME280;13829;48.990;8.346;2023-11-19T08:28:34;100321.94;;;13.72;100.00
26112;BME280;13829;48.990;8.346;2023-11-19T08:31:01;100336.94;;;13.65;100.00
26112;BME280;13829;48.990;8.346;2023-11-19T08:33:30;100328.09;;;13.71;100.00
26112;BME280;13829;48.990;8.346;2023-11-19T08:35:56;100318.31;;;13.82;100.00
26112;BME280;13829;48.990;8.346;2023-11-19T08:38:24;100321.78;;;13.88;100.00
26112;BME280;13829;48.990;8.346;2023-11-19T08:40:51;100312.97;;;13.89;100.00
26112;BME280;13829;48.990;8.346;2023-11-19T08:43:18;100309.44;;;13.90;100.00
26112;BME280;13829;48.990;8.346;2023-11-19T08:45:47;100311.22;;;13.83;100.00
26112;BME280;13829;48.990;8.346;2023-11-19T08:48:14;100316.44;;;13.92;100.00
26112;BME280;13829;48.990;8.346;2023-11-19T08:50:41;100325.28;;;13.90;100.00
26112;BME280;13829;48.990;8.346;2023-11-19T08:53:08;100327.06;;;13.84;100.00
26112;BME280;13829;48.990;8.346;2023-11-19T08:55:35;100335.97;;;13.77;100.00
26112;BME280;13829;48.990;8.346;2023-11-19T08:58:02;100332.47;;;13.75;100.00
26112;BME280;13829;48.990;8.346;2023-11-19T09:00:29;100335.16;;;13.70;100.00
26112;BME280;13829;48.990;8.346;2023-11-19T09:02:59;100343.09;;;13.69;100.00
26112;BME280;13829;48.990;8.346;2023-11-19T09:05:26;100342.22;;;13.65;100.00
26112;BME280;13829;48.990;8.346;2023-11-19T09:07:53;100343.97;;;13.68;100.00
26112;BME280;13829;48.990;8.346;2023-11-19T09:10:20;100346.66;;;13.65;100.00
26112;BME280;13829;48.990;8.346;2023-11-19T09:12:47;100349.25;;;13.69;100.00
26112;BME280;13829;48.990;8.346;2023-11-19T09:15:14;100346.53;;;13.79;100.00
26112;BME280;13829;48.990;8.346;2023-11-19T09:17:41;100349.16;;;13.80;100.00
26112;BME280;13829;48.990;8.346;2023-11-19T09:20:11;100352.69;;;13.81;100.00
26112;BME280;13829;48.990;8.346;2023-11-19T09:22:40;100350.03;;;13.79;100.00
26112;BME280;13829;48.990;8.346;2023-11-19T09:25:08;100351.72;;;13.90;100.00
26112;BME280;13829;48.990;8.346;2023-11-19T09:27:35;100344.63;;;13.92;100.00
26112;BME280;13829;48.990;8.346;2023-11-19T09:30:02;100347.28;;;13.92;100.00
26112;BME280;13829;48.990;8.346;2023-11-19T09:32:29;100339.25;;;14.02;100.00
26112;BME280;13829;48.990;8.346;2023-11-19T09:34:56;100352.56;;;13.92;100.00
26112;BME280;13829;48.990;8.346;2023-11-19T09:37:25;100350.69;;;14.03;100.00
26112;BME280;13829;48.990;8.346;2023-11-19T09:39:52;100348.00;;;14.09;100.00
26112;BME280;13829;48.990;8.346;2023-11-19T09:42:19;100350.56;;;14.17;100.00
26112;BME280;13829;48.990;8.346;2023-11-19T09:44:48;100351.44;;;14.17;100.00
26112;BME280;13829;48.990;8.346;2023-11-19T09:47:19;100348.69;;;14.27;100.00
26112;BME280;13829;48.990;8.346;2023-11-19T09:49:47;100356.56;;;14.33;100.00
26112;BME280;13829;48.990;8.346;2023-11-19T09:52:15;100355.59;;;14.39;100.00
26112;BME280;13829;48.990;8.346;2023-11-19T09:54:44;100356.44;;;14.45;100.00
26112;BME280;13829;48.990;8.346;2023-11-19T09:57:14;100362.50;;;14.54;100.00
26112;BME280;13829;48.990;8.346;2023-11-19T09:59:44;100366.78;;;14.64;100.00
26112;BME280;13829;48.990;8.346;2023-11-19T10:02:13;100357.94;;;14.66;100.00
26112;BME280;13829;48.990;8.346;2023-11-19T10:04:43;100358.00;;;14.59;100.00
26112;BME280;13829;48.990;8.346;2023-11-19T10:07:12;100343.88;;;14.61;100.00
26112;BME280;13829;48.990;8.346;2023-11-19T10:09:39;100335.81;;;14.74;100.00
26112;BME280;13829;48.990;8.346;2023-11-19T10:12:08;100331.78;;;15.09;100.00
26112;BME280;13829;48.990;8.346;2023-11-19T10:14:39;100328.78;;;15.32;100.00
26112;BME280;13829;48.990;8.346;2023-11-19T10:17:08;100323.53;;;15.29;100.00
26112;BME280;13829;48.990;8.346;2023-11-19T10:19:35;100323.34;;;15.40;100.00
26112;BME280;13829;48.990;8.346;2023-11-19T10:22:04;100319.63;;;15.52;100.00
26112;BME280;13829;48.990;8.346;2023-11-19T10:24:32;100324.72;;;15.64;100.00
26112;BME280;13829;48.990;8.346;2023-11-19T10:27:00;100328.84;;;15.84;100.00
26112;BME280;13829;48.990;8.346;2023-11-19T10:29:30;100313.88;;;15.78;100.00
26112;BME280;13829;48.990;8.346;2023-11-19T10:31:57;100321.00;;;15.76;100.00
26112;BME280;13829;48.990;8.346;2023-11-19T10:34:27;100323.75;;;15.68;100.00
26112;BME280;13829;48.990;8.346;2023-11-19T10:36:55;100319.28;;;15.73;100.00
26112;BME280;13829;48.990;8.346;2023-11-19T10:39:22;100321.81;;;15.78;100.00
26112;BME280;13829;48.990;8.346;2023-11-19T10:41:50;100305.09;;;15.74;100.00
26112;BME280;13829;48.990;8.346;2023-11-19T10:44:34;100314.13;;;15.64;100.00
26112;BME280;13829;48.990;8.346;2023-11-19T10:47:01;100308.06;;;15.57;100.00
26112;BME280;13829;48.990;8.346;2023-11-19T10:49:32;100307.03;;;15.66;100.00
26112;BME280;13829;48.990;8.346;2023-11-19T10:52:02;100306.19;;;15.62;100.00
26112;BME280;13829;48.990;8.346;2023-11-19T10:54:34;100314.22;;;15.58;100.00
26112;BME280;13829;48.990;8.346;2023-11-19T10:57:04;100312.63;;;15.47;100.00
26112;BME280;13829;48.990;8.346;2023-11-19T10:59:35;100313.75;;;15.34;100.00
26112;BME280;13829;48.990;8.346;2023-11-19T11:02:09;100305.66;;;15.40;100.00
26112;BME280;13829;48.990;8.346;2023-11-19T11:04:40;100302.03;;;15.47;100.00
26112;BME280;13829;48.990;8.346;2023-11-19T11:07:09;100300.38;;;15.42;100.00
26112;BME280;13829;48.990;8.346;2023-11-19T11:09:37;100303.13;;;15.36;100.00
26112;BME280;13829;48.990;8.346;2023-11-19T11:12:06;100302.31;;;15.30;100.00
26112;BME280;13829;48.990;8.346;2023-11-19T11:14:38;100311.94;;;15.36;100.00
26112;BME280;13829;48.990;8.346;2023-11-19T11:17:08;100307.50;;;15.38;100.00
26112;BME280;13829;48.990;8.346;2023-11-19T11:19:36;100312.50;;;15.57;100.00
26112;BME280;13829;48.990;8.346;2023-11-19T11:22:05;100302.69;;;15.62;100.00
26112;BME280;13829;48.990;8.346;2023-11-19T11:25:06;100299.69;;;15.84;100.00
26112;BME280;13829;48.990;8.346;2023-11-19T11:28:19;100290.34;;;16.09;100.00
26112;BME280;13829;48.990;8.346;2023-11-19T11:31:12;100293.56;;;16.24;100.00
26112;BME280;13829;48.990;8.346;2023-11-19T11:34:09;100289.84;;;16.33;100.00
26112;BME280;13829;48.990;8.346;2023-11-19T11:36:51;100296.84;;;16.38;100.00
26112;BME280;13829;48.990;8.346;2023-11-19T11:39:22;100283.69;;;16.32;100.00
26112;BME280;13829;48.990;8.346;2023-11-19T11:42:35;100279.84;;;16.03;100.00
26112;BME280;13829;48.990;8.346;2023-11-19T11:45:05;100271.16;;;15.95;100.00
26112;BME280;13829;48.990;8.346;2023-11-19T11:48:19;100283.88;;;15.74;100.00
26112;BME280;13829;48.990;8.346;2023-11-19T11:50:56;100272.56;;;15.66;100.00
26112;BME280;13829;48.990;8.346;2023-11-19T11:53:24;100274.44;;;15.58;100.00
26112;BME280;13829;48.990;8.346;2023-11-19T11:55:57;100271.81;;;15.58;100.00
26112;BME280;13829;48.990;8.346;2023-11-19T11:58:31;100257.78;;;15.51;100.00
26112;BME280;13829;48.990;8.346;2023-11-19T12:01:02;100267.44;;;15.55;100.00
26112;BME280;13829;48.990;8.346;2023-11-19T12:03:33;100256.56;;;15.69;100.00
26112;BME280;13829;48.990;8.346;2023-11-19T12:06:00;100267.94;;;15.77;100.00
26112;BME280;13829;48.990;8.346;2023-11-19T12:08:29;100260.53;;;15.96;100.00
26112;BME280;13829;48.990;8.346;2023-11-19T12:10:58;100255.00;;;16.07;100.00
26112;BME280;13829;48.990;8.346;2023-11-19T12:13:46;100247.72;;;16.17;100.00
26112;BME280;13829;48.990;8.346;2023-11-19T12:16:14;100238.78;;;16.23;100.00
26112;BME280;13829;48.990;8.346;2023-11-19T12:18:42;100240.59;;;16.21;100.00
26112;BME280;13829;48.990;8.346;2023-11-19T12:21:10;100228.34;;;16.13;100.00
26112;BME280;13829;48.990;8.346;2023-11-19T12:23:45;100238.41;;;15.97;100.00
26112;BME280;13829;48.990;8.346;2023-11-19T12:26:37;100236.84;;;15.87;100.00
26112;BME280;13829;48.990;8.346;2023-11-19T12:29:04;100230.06;;;15.71;100.00
26112;BME280;13829;48.990;8.346;2023-11-19T12:31:32;100225.44;;;15.80;100.00
26112;BME280;13829;48.990;8.346;2023-11-19T12:34:09;100223.31;;;16.01;100.00
26112;BME280;13829;48.990;8.346;2023-11-19T12:36:39;100220.41;;;16.12;100.00
26112;BME280;13829;48.990;8.346;2023-11-19T12:39:07;100215.97;;;16.12;100.00
26112;BME280;13829;48.990;8.346;2023-11-19T12:41:52;100208.66;;;16.24;100.00
26112;BME280;13829;48.990;8.346;2023-11-19T12:44:20;100209.00;;;16.08;100.00
26112;BME280;13829;48.990;8.346;2023-11-19T12:47:00;100203.75;;;16.05;100.00
26112;BME280;13829;48.990;8.346;2023-11-19T12:49:29;100207.53;;;15.95;100.00